sensor_id;sensor_type;location;lat;lon;timestamp;pressure;altitude;pressure_sealevel;temperature;humidity
71151;BME280;59071;42.138;24.768;2022-12-07T00:01:39;99883.47;;;6.43;88.30
71151;BME280;59071;42.138;24.768;2022-12-07T00:04:06;99892.06;;;6.45;87.76
71151;BME280;59071;42.138;24.768;2022-12-07T00:06:34;99887.53;;;6.22;89.16
71151;BME280;59071;42.138;24.768;2022-12-07T00:08:59;99887.63;;;6.37;88.10
71151;BME280;59071;42.138;24.768;2022-12-07T00:11:25;99898.09;;;6.22;88.58
71151;BME280;59071;42.138;24.768;2022-12-07T00:13:52;99887.09;;;6.11;88.24
71151;BME280;59071;42.138;24.768;2022-12-07T00:16:20;99890.06;;;6.16;87.50
71151;BME280;59071;42.138;24.768;2022-12-07T00:18:46;99881.53;;;5.89;87.97
71151;BME280;59071;42.138;24.768;2022-12-07T00:21:16;99884.66;;;5.84;89.02
71151;BME280;59071;42.138;24.768;2022-12-07T00:23:43;99887.97;;;5.78;89.41
71151;BME280;59071;42.138;24.768;2022-12-07T00:26:21;99886.47;;;5.92;88.00
71151;BME280;59071;42.138;24.768;2022-12-07T00:28:47;99884.00;;;5.82;88.36
71151;BME280;59071;42.138;24.768;2022-12-07T00:31:14;99885.66;;;5.83;88.41
71151;BME280;59071;42.138;24.768;2022-12-07T00:33:41;99885.81;;;5.82;87.82
71151;BME280;59071;42.138;24.768;2022-12-07T00:36:08;99890.13;;;5.75;87.53
71151;BME280;59071;42.138;24.768;2022-12-07T00:38:36;99894.47;;;5.67;87.71
71151;BME280;59071;42.138;24.768;2022-12-07T00:41:04;99887.03;;;5.63;88.05
71151;BME280;59071;42.138;24.768;2022-12-07T00:43:30;99889.69;;;5.55;87.72
71151;BME280;59071;42.138;24.768;2022-12-07T00:45:56;99882.09;;;5.60;88.18
71151;BME280;59071;42.138;24.768;2022-12-07T00:48:22;99883.75;;;5.53;88.22
71151;BME280;59071;42.138;24.768;2022-12-07T00:50:48;99886.06;;;5.47;88.28
71151;BME280;59071;42.138;24.768;2022-12-07T00:53:15;99871.19;;;5.55;88.05
71151;BME280;59071;42.138;24.768;2022-12-07T00:55:41;99883.75;;;5.53;87.96
71151;BME280;59071;42.138;24.768;2022-12-07T00:58:06;99877.78;;;5.59;88.12
71151;BME280;59071;42.138;24.768;2022-12-07T01:00:32;99883.69;;;5.69;87.73
71151;BME280;59071;42.138;24.768;2022-12-07T01:02:58;99876.81;;;5.52;87.65
71151;BME280;59071;42.138;24.768;2022-12-07T01:05:24;99877.97;;;5.49;88.07
71151;BME280;59071;42.138;24.768;2022-12-07T01:07:49;99873.88;;;5.46;87.38
71151;BME280;59071;42.138;24.768;2022-12-07T01:10:15;99879.97;;;5.39;87.87
71151;BME280;59071;42.138;24.768;2022-12-07T01:12:40;99871.38;;;5.45;88.60
71151;BME280;59071;42.138;24.768;2022-12-07T01:15:07;99881.56;;;5.81;86.63
71151;BME280;59071;42.138;24.768;2022-12-07T01:17:33;99868.41;;;5.40;86.80
71151;BME280;59071;42.138;24.768;2022-12-07T01:19:58;99861.34;;;5.24;87.13
71151;BME280;59071;42.138;24.768;2022-12-07T01:22:24;99870.41;;;5.13;87.88
71151;BME280;59071;42.138;24.768;2022-12-07T01:24:49;99866.59;;;5.16;87.62
71151;BME280;59071;42.138;24.768;2022-12-07T01:27:15;99867.94;;;5.20;87.68
71151;BME280;59071;42.138;24.768;2022-12-07T01:29:40;99862.34;;;5.15;87.34
71151;BME280;59071;42.138;24.768;2022-12-07T01:32:06;99856.38;;;5.04;88.13
71151;BME280;59071;42.138;24.768;2022-12-07T01:34:31;99858.03;;;5.22;87.34
71151;BME280;59071;42.138;24.768;2022-12-07T01:36:57;99859.69;;;5.15;88.38
71151;BME280;59071;42.138;24.768;2022-12-07T01:39:23;99846.16;;;5.09;88.11
71151;BME280;59071;42.138;24.768;2022-12-07T01:41:49;99849.97;;;5.07;88.64
71151;BME280;59071;42.138;24.768;2022-12-07T01:44:21;99839.06;;;5.02;89.15
71151;BME280;59071;42.138;24.768;2022-12-07T01:46:49;99843.22;;;5.13;88.18
71151;BME280;59071;42.138;24.768;2022-12-07T01:51:58;99833.97;;;5.08;87.78
71151;BME280;59071;42.138;24.768;2022-12-07T01:54:26;99831.00;;;5.03;88.83
71151;BME280;59071;42.138;24.768;2022-12-07T01:56:54;99829.53;;;5.01;88.51
71151;BME280;59071;42.138;24.768;2022-12-07T01:59:23;99846.81;;;4.87;88.95
71151;BME280;59071;42.138;24.768;2022-12-07T02:01:51;99849.44;;;4.87;89.59
71151;BME280;59071;42.138;24.768;2022-12-07T02:04:18;99841.88;;;4.84;89.65
71151;BME280;59071;42.138;24.768;2022-12-07T02:06:44;99841.38;;;4.88;89.09
71151;BME280;59071;42.138;24.768;2022-12-07T02:09:10;99840.88;;;4.77;89.85
71151;BME280;59071;42.138;24.768;2022-12-07T02:11:36;99843.03;;;4.81;90.10
71151;BME280;59071;42.138;24.768;2022-12-07T02:14:01;99834.47;;;4.96;89.60
71151;BME280;59071;42.138;24.768;2022-12-07T02:19:29;99833.81;;;4.94;88.90
71151;BME280;59071;42.138;24.768;2022-12-07T02:22:24;99831.81;;;4.79;89.60
71151;BME280;59071;42.138;24.768;2022-12-07T02:25:27;99814.84;;;4.82;89.97
71151;BME280;59071;42.138;24.768;2022-12-07T02:30:35;99820.59;;;5.10;87.99
71151;BME280;59071;42.138;24.768;2022-12-07T02:33:30;99805.94;;;5.07;87.73
71151;BME280;59071;42.138;24.768;2022-12-07T02:39:17;99810.06;;;4.85;88.27
71151;BME280;59071;42.138;24.768;2022-12-07T02:41:36;99807.44;;;4.94;87.82
71151;BME280;59071;42.138;24.768;2022-12-07T02:44:15;99808.91;;;4.88;88.07
71151;BME280;59071;42.138;24.768;2022-12-07T02:46:48;99814.38;;;4.78;88.68
71151;BME280;59071;42.138;24.768;2022-12-07T02:49:16;99810.22;;;4.92;88.01
71151;BME280;59071;42.138;24.768;2022-12-07T02:51:43;99808.09;;;4.96;87.47
71151;BME280;59071;42.138;24.768;2022-12-07T02:54:18;99808.09;;;5.04;86.62
71151;BME280;59071;42.138;24.768;2022-12-07T03:05:23;99784.81;;;5.16;86.89
71151;BME280;59071;42.138;24.768;2022-12-07T03:18:31;99794.06;;;4.87;88.31
71151;BME280;59071;42.138;24.768;2022-12-07T03:21:02;99794.25;;;5.02;88.34
71151;BME280;59071;42.138;24.768;2022-12-07T03:23:32;99803.28;;;5.16;87.36
71151;BME280;59071;42.138;24.768;2022-12-07T03:26:00;99803.16;;;5.09;87.71
71151;BME280;59071;42.138;24.768;2022-12-07T03:28:34;99808.06;;;5.20;88.08
71151;BME280;59071;42.138;24.768;2022-12-07T03:31:22;99800.31;;;5.19;87.21
71151;BME280;59071;42.138;24.768;2022-12-07T03:36:30;99807.91;;;5.22;87.64
71151;BME280;59071;42.138;24.768;2022-12-07T03:41:43;99806.75;;;5.08;88.26
71151;BME280;59071;42.138;24.768;2022-12-07T03:44:09;99805.78;;;5.09;88.56
71151;BME280;59071;42.138;24.768;2022-12-07T03:52:26;99799.81;;;5.15;89.42
71151;BME280;59071;42.138;24.768;2022-12-07T03:55:15;99795.03;;;5.19;87.12
71151;BME280;59071;42.138;24.768;2022-12-07T03:57:43;99787.97;;;5.27;87.48
71151;BME280;59071;42.138;24.768;2022-12-07T04:00:10;99782.69;;;5.11;87.75
71151;BME280;59071;42.138;24.768;2022-12-07T04:02:36;99790.41;;;5.21;87.05
71151;BME280;59071;42.138;24.768;2022-12-07T04:05:03;99786.78;;;5.14;87.58
71151;BME280;59071;42.138;24.768;2022-12-07T04:07:28;99781.53;;;5.14;86.92
71151;BME280;59071;42.138;24.768;2022-12-07T04:09:54;99788.78;;;5.20;88.11
71151;BME280;59071;42.138;24.768;2022-12-07T04:12:23;99786.97;;;5.20;87.48
71151;BME280;59071;42.138;24.768;2022-12-07T04:14:48;99789.13;;;5.08;88.22
71151;BME280;59071;42.138;24.768;2022-12-07T04:17:14;99790.44;;;5.04;88.07
71151;BME280;59071;42.138;24.768;2022-12-07T04:19:39;99799.03;;;5.06;87.26
71151;BME280;59071;42.138;24.768;2022-12-07T04:22:05;99779.91;;;4.96;87.71
71151;BME280;59071;42.138;24.768;2022-12-07T04:24:32;99773.81;;;4.87;87.62
71151;BME280;59071;42.138;24.768;2022-12-07T04:26:57;99776.25;;;5.22;86.94
71151;BME280;59071;42.138;24.768;2022-12-07T04:29:23;99775.72;;;5.35;85.39
71151;BME280;59071;42.138;24.768;2022-12-07T04:31:49;99772.94;;;5.28;85.83
71151;BME280;59071;42.138;24.768;2022-12-07T04:34:15;99771.94;;;5.37;86.16
71151;BME280;59071;42.138;24.768;2022-12-07T04:36:42;99780.38;;;5.08;86.63
71151;BME280;59071;42.138;24.768;2022-12-07T04:39:24;99784.19;;;5.05;85.42
71151;BME280;59071;42.138;24.768;2022-12-07T04:41:50;99782.50;;;5.21;85.94
71151;BME280;59071;42.138;24.768;2022-12-07T04:44:16;99768.88;;;5.01;86.10
71151;BME280;59071;42.138;24.768;2022-12-07T04:46:42;99776.44;;;5.04;86.35
71151;BME280;59071;42.138;24.768;2022-12-07T04:49:08;99776.78;;;4.84;86.83
71151;BME280;59071;42.138;24.768;2022-12-07T04:51:34;99774.31;;;4.99;87.31
71151;BME280;59071;42.138;24.768;2022-12-07T04:53:59;99773.47;;;4.90;87.45
71151;BME280;59071;42.138;24.768;2022-12-07T04:56:24;99775.63;;;4.87;87.37
71151;BME280;59071;42.138;24.768;2022-12-07T04:58:51;99769.69;;;4.77;87.42
71151;BME280;59071;42.138;24.768;2022-12-07T05:01:18;99782.56;;;4.80;87.36
71151;BME280;59071;42.138;24.768;2022-12-07T05:03:44;99780.72;;;4.72;87.18
71151;BME280;59071;42.138;24.768;2022-12-07T05:06:11;99778.75;;;4.58;88.34
71151;BME280;59071;42.138;24.768;2022-12-07T05:08:37;99789.09;;;4.51;88.13
71151;BME280;59071;42.138;24.768;2022-12-07T05:11:03;99780.22;;;4.60;89.36
71151;BME280;59071;42.138;24.768;2022-12-07T05:13:29;99786.16;;;4.54;89.27
71151;BME280;59071;42.138;24.768;2022-12-07T05:15:55;99790.13;;;4.75;89.00
71151;BME280;59071;42.138;24.768;2022-12-07T05:18:20;99785.19;;;4.80;88.59
71151;BME280;59071;42.138;24.768;2022-12-07T05:20:46;99775.09;;;4.59;87.94
71151;BME280;59071;42.138;24.768;2022-12-07T05:23:11;99787.47;;;4.50;88.54
71151;BME280;59071;42.138;24.768;2022-12-07T05:25:37;99786.31;;;4.53;89.25
71151;BME280;59071;42.138;24.768;2022-12-07T05:28:03;99780.38;;;4.59;89.88
71151;BME280;59071;42.138;24.768;2022-12-07T05:30:29;99796.19;;;4.50;88.31
71151;BME280;59071;42.138;24.768;2022-12-07T05:32:54;99788.13;;;5.09;88.54
71151;BME280;59071;42.138;24.768;2022-12-07T05:35:20;99804.88;;;5.49;87.86
71151;BME280;59071;42.138;24.768;2022-12-07T05:37:45;99800.34;;;4.94;88.17
71151;BME280;59071;42.138;24.768;2022-12-07T05:40:13;99801.69;;;4.82;89.20
71151;BME280;59071;42.138;24.768;2022-12-07T05:42:39;99792.28;;;4.87;88.63
71151;BME280;59071;42.138;24.768;2022-12-07T05:45:05;99788.81;;;4.79;89.65
71151;BME280;59071;42.138;24.768;2022-12-07T05:47:31;99795.91;;;4.78;92.25
71151;BME280;59071;42.138;24.768;2022-12-07T05:49:56;99795.03;;;5.19;93.62
71151;BME280;59071;42.138;24.768;2022-12-07T05:52:22;99796.47;;;5.54;91.51
71151;BME280;59071;42.138;24.768;2022-12-07T05:54:47;99789.91;;;5.34;89.22
71151;BME280;59071;42.138;24.768;2022-12-07T05:57:13;99790.34;;;5.54;88.06
71151;BME280;59071;42.138;24.768;2022-12-07T05:59:39;99791.69;;;5.49;87.85
71151;BME280;59071;42.138;24.768;2022-12-07T06:02:09;99796.97;;;5.49;88.01
71151;BME280;59071;42.138;24.768;2022-12-07T06:04:40;99807.50;;;5.49;88.61
71151;BME280;59071;42.138;24.768;2022-12-07T06:07:06;99795.81;;;5.44;88.90
71151;BME280;59071;42.138;24.768;2022-12-07T06:09:33;99789.88;;;5.42;88.95
71151;BME280;59071;42.138;24.768;2022-12-07T06:11:59;99793.34;;;5.42;89.13
71151;BME280;59071;42.138;24.768;2022-12-07T06:14:43;99801.44;;;5.41;89.71
71151;BME280;59071;42.138;24.768;2022-12-07T06:17:09;99807.69;;;5.48;89.93
71151;BME280;59071;42.138;24.768;2022-12-07T06:19:36;99801.56;;;5.56;89.28
71151;BME280;59071;42.138;24.768;2022-12-07T06:22:02;99805.88;;;5.48;89.36
71151;BME280;59071;42.138;24.768;2022-12-07T06:24:30;99806.97;;;5.71;91.02
71151;BME280;59071;42.138;24.768;2022-12-07T06:26:55;99801.47;;;5.80;89.04
71151;BME280;59071;42.138;24.768;2022-12-07T06:29:21;99791.78;;;5.73;87.44
71151;BME280;59071;42.138;24.768;2022-12-07T06:31:47;99814.66;;;5.88;88.49
71151;BME280;59071;42.138;24.768;2022-12-07T06:34:15;99813.66;;;5.90;88.11
71151;BME280;59071;42.138;24.768;2022-12-07T06:36:42;99807.88;;;5.94;88.17
71151;BME280;59071;42.138;24.768;2022-12-07T06:39:07;99814.81;;;6.35;86.31
71151;BME280;59071;42.138;24.768;2022-12-07T06:41:35;99820.69;;;6.14;86.24
71151;BME280;59071;42.138;24.768;2022-12-07T06:44:01;99824.09;;;6.22;86.30
71151;BME280;59071;42.138;24.768;2022-12-07T06:46:27;99820.53;;;6.15;86.92
71151;BME280;59071;42.138;24.768;2022-12-07T06:48:52;99828.47;;;6.15;86.61
71151;BME280;59071;42.138;24.768;2022-12-07T06:51:18;99816.81;;;6.33;86.94
71151;BME280;59071;42.138;24.768;2022-12-07T06:53:44;99821.78;;;6.59;85.46
71151;BME280;59071;42.138;24.768;2022-12-07T06:56:09;99818.72;;;6.70;85.21
71151;BME280;59071;42.138;24.768;2022-12-07T06:58:34;99813.88;;;6.74;83.21
71151;BME280;59071;42.138;24.768;2022-12-07T07:01:00;99817.81;;;7.16;81.18
71151;BME280;59071;42.138;24.768;2022-12-07T07:03:25;99817.19;;;6.99;82.22
71151;BME280;59071;42.138;24.768;2022-12-07T07:05:51;99810.56;;;7.18;80.28
71151;BME280;59071;42.138;24.768;2022-12-07T07:08:16;99810.69;;;7.01;80.95
71151;BME280;59071;42.138;24.768;2022-12-07T07:10:42;99808.00;;;6.87;80.89
71151;BME280;59071;42.138;24.768;2022-12-07T07:13:07;99800.75;;;7.03;81.43
71151;BME280;59071;42.138;24.768;2022-12-07T07:15:34;99804.50;;;7.09;81.91
71151;BME280;59071;42.138;24.768;2022-12-07T07:18:00;99809.03;;;7.53;80.28
71151;BME280;59071;42.138;24.768;2022-12-07T07:20:25;99807.66;;;7.57;80.02
71151;BME280;59071;42.138;24.768;2022-12-07T07:22:54;99814.25;;;7.47;81.36
71151;BME280;59071;42.138;24.768;2022-12-07T07:25:19;99810.59;;;7.77;79.99
71151;BME280;59071;42.138;24.768;2022-12-07T07:27:44;99816.88;;;7.76;78.84
71151;BME280;59071;42.138;24.768;2022-12-07T07:30:10;99813.59;;;7.74;79.36
71151;BME280;59071;42.138;24.768;2022-12-07T07:32:36;99810.50;;;7.86;78.66
71151;BME280;59071;42.138;24.768;2022-12-07T07:35:02;99807.34;;;8.12;76.18
71151;BME280;59071;42.138;24.768;2022-12-07T07:37:27;99819.59;;;8.13;76.85
71151;BME280;59071;42.138;24.768;2022-12-07T07:39:53;99818.72;;;7.91;77.93
71151;BME280;59071;42.138;24.768;2022-12-07T07:42:18;99810.03;;;7.97;76.56
71151;BME280;59071;42.138;24.768;2022-12-07T07:44:43;99825.41;;;7.87;78.44
71151;BME280;59071;42.138;24.768;2022-12-07T07:47:09;99830.97;;;7.77;79.40
71151;BME280;59071;42.138;24.768;2022-12-07T07:49:34;99823.47;;;7.66;79.46
71151;BME280;59071;42.138;24.768;2022-12-07T07:52:00;99826.09;;;7.80;79.34
71151;BME280;59071;42.138;24.768;2022-12-07T07:54:25;99829.84;;;8.01;78.86
71151;BME280;59071;42.138;24.768;2022-12-07T07:56:52;99802.81;;;8.06;77.81
71151;BME280;59071;42.138;24.768;2022-12-07T07:59:17;99824.78;;;8.36;77.07
71151;BME280;59071;42.138;24.768;2022-12-07T08:01:43;99829.69;;;8.75;75.06
71151;BME280;59071;42.138;24.768;2022-12-07T08:04:08;99827.16;;;9.10;73.92
71151;BME280;59071;42.138;24.768;2022-12-07T08:06:34;99822.13;;;9.22;73.04
71151;BME280;59071;42.138;24.768;2022-12-07T08:08:59;99821.63;;;9.12;73.71
71151;BME280;59071;42.138;24.768;2022-12-07T08:11:24;99819.94;;;9.04;74.18
71151;BME280;59071;42.138;24.768;2022-12-07T08:13:50;99822.41;;;9.27;73.21
71151;BME280;59071;42.138;24.768;2022-12-07T08:16:16;99821.03;;;9.38;72.30
71151;BME280;59071;42.138;24.768;2022-12-07T08:18:42;99822.97;;;9.57;71.75
71151;BME280;59071;42.138;24.768;2022-12-07T08:21:12;99819.31;;;9.58;73.27
71151;BME280;59071;42.138;24.768;2022-12-07T08:23:38;99815.56;;;9.81;70.70
71151;BME280;59071;42.138;24.768;2022-12-07T08:26:09;99826.56;;;10.13;70.67
71151;BME280;59071;42.138;24.768;2022-12-07T08:28:35;99820.88;;;10.29;69.62
71151;BME280;59071;42.138;24.768;2022-12-07T08:33:27;99826.28;;;10.36;69.34
71151;BME280;59071;42.138;24.768;2022-12-07T08:35:52;99822.59;;;10.50;68.10
71151;BME280;59071;42.138;24.768;2022-12-07T08:38:17;99825.84;;;10.32;69.01
71151;BME280;59071;42.138;24.768;2022-12-07T08:40:43;99823.69;;;10.63;69.58
71151;BME280;59071;42.138;24.768;2022-12-07T08:43:08;99809.38;;;10.97;68.06
71151;BME280;59071;42.138;24.768;2022-12-07T08:45:34;99814.50;;;11.12;67.59
71151;BME280;59071;42.138;24.768;2022-12-07T08:48:09;99815.09;;;10.81;68.05
71151;BME280;59071;42.138;24.768;2022-12-07T08:50:37;99805.25;;;11.08;67.49
71151;BME280;59071;42.138;24.768;2022-12-07T08:53:03;99798.69;;;11.44;66.87
71151;BME280;59071;42.138;24.768;2022-12-07T08:55:30;99803.50;;;11.80;65.50
71151;BME280;59071;42.138;24.768;2022-12-07T08:58:00;99798.44;;;11.65;65.31
71151;BME280;59071;42.138;24.768;2022-12-07T09:00:27;99805.38;;;11.80;65.32
71151;BME280;59071;42.138;24.768;2022-12-07T09:02:53;99798.16;;;12.00;64.78
71151;BME280;59071;42.138;24.768;2022-12-07T09:05:19;99798.75;;;12.02;64.64
71151;BME280;59071;42.138;24.768;2022-12-07T09:07:48;99787.72;;;11.85;64.13
71151;BME280;59071;42.138;24.768;2022-12-07T09:10:15;99783.19;;;11.86;64.28
71151;BME280;59071;42.138;24.768;2022-12-07T09:12:41;99781.78;;;11.83;63.91
71151;BME280;59071;42.138;24.768;2022-12-07T09:15:06;99775.78;;;12.01;62.74
71151;BME280;59071;42.138;24.768;2022-12-07T09:17:33;99761.50;;;11.69;64.11
71151;BME280;59071;42.138;24.768;2022-12-07T09:19:59;99759.41;;;11.91;64.09
71151;BME280;59071;42.138;24.768;2022-12-07T09:22:29;99755.03;;;12.10;64.07
71151;BME280;59071;42.138;24.768;2022-12-07T09:24:56;99755.28;;;12.65;61.33
71151;BME280;59071;42.138;24.768;2022-12-07T09:27:21;99751.50;;;12.80;60.12
71151;BME280;59071;42.138;24.768;2022-12-07T09:29:47;99749.53;;;12.68;60.66
71151;BME280;59071;42.138;24.768;2022-12-07T09:32:12;99751.53;;;12.73;60.45
71151;BME280;59071;42.138;24.768;2022-12-07T09:34:38;99746.09;;;12.86;60.75
71151;BME280;59071;42.138;24.768;2022-12-07T09:37:03;99731.66;;;13.38;58.53
71151;BME280;59071;42.138;24.768;2022-12-07T09:39:29;99727.63;;;12.85;60.65
71151;BME280;59071;42.138;24.768;2022-12-07T09:41:57;99728.63;;;13.09;60.17
71151;BME280;59071;42.138;24.768;2022-12-07T09:44:25;99728.28;;;13.24;60.13
71151;BME280;59071;42.138;24.768;2022-12-07T09:46:52;99726.63;;;12.54;60.16
71151;BME280;59071;42.138;24.768;2022-12-07T09:49:21;99725.22;;;12.51;61.20
71151;BME280;59071;42.138;24.768;2022-12-07T09:51:48;99713.00;;;12.05;61.83
71151;BME280;59071;42.138;24.768;2022-12-07T09:54:24;99713.94;;;12.49;61.00
71151;BME280;59071;42.138;24.768;2022-12-07T09:56:49;99714.19;;;12.41;61.11
71151;BME280;59071;42.138;24.768;2022-12-07T09:59:17;99700.22;;;12.71;60.51
71151;BME280;59071;42.138;24.768;2022-12-07T10:01:45;99714.34;;;12.53;60.81
71151;BME280;59071;42.138;24.768;2022-12-07T10:04:15;99704.28;;;12.74;60.37
71151;BME280;59071;42.138;24.768;2022-12-07T10:06:42;99700.03;;;12.66;60.89
71151;BME280;59071;42.138;24.768;2022-12-07T10:09:20;99709.91;;;13.34;58.95
71151;BME280;59071;42.138;24.768;2022-12-07T10:12:03;99699.81;;;12.67;59.51
71151;BME280;59071;42.138;24.768;2022-12-07T10:14:30;99693.88;;;12.65;60.92
71151;BME280;59071;42.138;24.768;2022-12-07T10:16:56;99682.78;;;12.43;60.64
71151;BME280;59071;42.138;24.768;2022-12-07T10:19:24;99693.47;;;12.68;60.39
71151;BME280;59071;42.138;24.768;2022-12-07T10:22:11;99687.81;;;13.02;59.63
71151;BME280;59071;42.138;24.768;2022-12-07T10:24:38;99683.75;;;13.18;59.04
71151;BME280;59071;42.138;24.768;2022-12-07T10:27:26;99680.72;;;13.14;59.52
71151;BME280;59071;42.138;24.768;2022-12-07T10:29:54;99670.84;;;12.71;60.76
71151;BME280;59071;42.138;24.768;2022-12-07T10:34:45;99667.16;;;12.72;59.69
71151;BME280;59071;42.138;24.768;2022-12-07T10:39:51;99663.19;;;13.00;60.39
71151;BME280;59071;42.138;24.768;2022-12-07T10:42:30;99665.97;;;12.86;59.62
71151;BME280;59071;42.138;24.768;2022-12-07T10:47:36;99674.63;;;13.25;59.29
71151;BME280;59071;42.138;24.768;2022-12-07T11:01:25;99666.88;;;13.17;58.70
71151;BME280;59071;42.138;24.768;2022-12-07T11:11:39;99648.16;;;13.73;57.78
71151;BME280;59071;42.138;24.768;2022-12-07T11:14:44;99649.53;;;12.89;60.38
71151;BME280;59071;42.138;24.768;2022-12-07T11:17:23;99653.09;;;13.02;60.05
71151;BME280;59071;42.138;24.768;2022-12-07T11:23:03;99634.81;;;12.80;60.17
71151;BME280;59071;42.138;24.768;2022-12-07T11:31:37;99633.66;;;13.13;60.20
71151;BME280;59071;42.138;24.768;2022-12-07T11:34:27;99625.41;;;13.15;59.56
71151;BME280;59071;42.138;24.768;2022-12-07T11:36:56;99623.53;;;13.15;59.71
71151;BME280;59071;42.138;24.768;2022-12-07T11:39:25;99632.56;;;13.39;59.75
71151;BME280;59071;42.138;24.768;2022-12-07T11:41:59;99620.75;;;13.10;59.50
71151;BME280;59071;42.138;24.768;2022-12-07T11:44:48;99606.94;;;12.76;60.41
71151;BME280;59071;42.138;24.768;2022-12-07T11:47:22;99615.66;;;12.65;61.13
71151;BME280;59071;42.138;24.768;2022-12-07T11:49:56;99612.81;;;12.60;60.67
71151;BME280;59071;42.138;24.768;2022-12-07T11:52:32;99606.94;;;12.26;62.00
71151;BME280;59071;42.138;24.768;2022-12-07T11:55:17;99602.09;;;12.41;62.40
71151;BME280;59071;42.138;24.768;2022-12-07T11:57:46;99599.94;;;12.57;60.71
71151;BME280;59071;42.138;24.768;2022-12-07T12:00:16;99597.69;;;12.54;61.01
71151;BME280;59071;42.138;24.768;2022-12-07T12:03:23;99600.41;;;12.72;61.17
71151;BME280;59071;42.138;24.768;2022-12-07T12:05:55;99591.72;;;12.77;60.53
71151;BME280;59071;42.138;24.768;2022-12-07T12:08:27;99592.31;;;12.79;60.62
71151;BME280;59071;42.138;24.768;2022-12-07T12:13:54;99584.91;;;12.62;60.74
71151;BME280;59071;42.138;24.768;2022-12-07T12:19:33;99590.34;;;12.24;61.80
71151;BME280;59071;42.138;24.768;2022-12-07T12:24:41;99577.59;;;12.51;62.31
71151;BME280;59071;42.138;24.768;2022-12-07T12:27:21;99581.41;;;12.37;62.02
71151;BME280;59071;42.138;24.768;2022-12-07T12:29:54;99586.44;;;12.51;62.30
71151;BME280;59071;42.138;24.768;2022-12-07T12:32:22;99584.75;;;12.32;61.65
71151;BME280;59071;42.138;24.768;2022-12-07T12:37:47;99562.41;;;12.51;61.03
71151;BME280;59071;42.138;24.768;2022-12-07T12:42:49;99567.19;;;12.24;62.07
71151;BME280;59071;42.138;24.768;2022-12-07T12:45:25;99560.53;;;12.08;63.03
71151;BME280;59071;42.138;24.768;2022-12-07T12:50:27;99568.03;;;11.93;63.47
71151;BME280;59071;42.138;24.768;2022-12-07T12:53:00;99555.63;;;12.05;62.28
71151;BME280;59071;42.138;24.768;2022-12-07T13:00:45;99545.28;;;11.84;62.84
71151;BME280;59071;42.138;24.768;2022-12-07T13:03:29;99551.59;;;11.64;64.13
71151;BME280;59071;42.138;24.768;2022-12-07T13:06:18;99552.22;;;11.91;62.98
71151;BME280;59071;42.138;24.768;2022-12-07T13:08:45;99554.09;;;12.16;62.87
71151;BME280;59071;42.138;24.768;2022-12-07T13:11:29;99540.97;;;12.15;62.25
71151;BME280;59071;42.138;24.768;2022-12-07T13:17:00;99539.94;;;11.84;64.14
71151;BME280;59071;42.138;24.768;2022-12-07T13:22:48;99543.00;;;11.55;64.15
71151;BME280;59071;42.138;24.768;2022-12-07T13:27:43;99536.53;;;11.77;63.43
71151;BME280;59071;42.138;24.768;2022-12-07T13:30:18;99546.66;;;11.61;64.09
71151;BME280;59071;42.138;24.768;2022-12-07T13:32:55;99541.31;;;11.68;64.48
71151;BME280;59071;42.138;24.768;2022-12-07T13:37:56;99550.81;;;11.89;63.90
71151;BME280;59071;42.138;24.768;2022-12-07T13:40:23;99544.88;;;11.87;63.66
71151;BME280;59071;42.138;24.768;2022-12-07T13:43:03;99550.44;;;12.10;63.14
71151;BME280;59071;42.138;24.768;2022-12-07T13:45:31;99542.91;;;12.07;62.92
71151;BME280;59071;42.138;24.768;2022-12-07T13:48:43;99547.88;;;11.97;63.49
71151;BME280;59071;42.138;24.768;2022-12-07T13:51:17;99547.84;;;12.04;63.25
71151;BME280;59071;42.138;24.768;2022-12-07T13:53:47;99553.34;;;12.09;62.31
71151;BME280;59071;42.138;24.768;2022-12-07T13:56:13;99552.47;;;11.90;62.90
71151;BME280;59071;42.138;24.768;2022-12-07T13:58:40;99553.06;;;12.17;62.77
71151;BME280;59071;42.138;24.768;2022-12-07T14:01:05;99556.97;;;11.89;63.91
71151;BME280;59071;42.138;24.768;2022-12-07T14:03:33;99563.16;;;11.90;64.04
71151;BME280;59071;42.138;24.768;2022-12-07T14:06:22;99561.22;;;11.97;64.18
71151;BME280;59071;42.138;24.768;2022-12-07T14:08:51;99556.94;;;11.96;63.98
71151;BME280;59071;42.138;24.768;2022-12-07T14:11:30;99552.50;;;12.08;63.45
71151;BME280;59071;42.138;24.768;2022-12-07T14:13:58;99555.81;;;11.79;64.19
71151;BME280;59071;42.138;24.768;2022-12-07T14:18:58;99548.72;;;11.59;65.68
71151;BME280;59071;42.138;24.768;2022-12-07T14:21:26;99555.50;;;11.62;65.25
71151;BME280;59071;42.138;24.768;2022-12-07T14:24:08;99563.09;;;11.58;64.96
71151;BME280;59071;42.138;24.768;2022-12-07T14:26:34;99560.66;;;11.11;67.31
71151;BME280;59071;42.138;24.768;2022-12-07T14:31:47;99553.19;;;11.33;66.50
71151;BME280;59071;42.138;24.768;2022-12-07T14:34:13;99550.91;;;11.69;65.33
71151;BME280;59071;42.138;24.768;2022-12-07T14:36:38;99542.97;;;11.62;65.49
71151;BME280;59071;42.138;24.768;2022-12-07T14:39:03;99548.53;;;11.61;65.06
71151;BME280;59071;42.138;24.768;2022-12-07T14:41:29;99564.97;;;11.51;66.57
71151;BME280;59071;42.138;24.768;2022-12-07T14:44:13;99560.91;;;11.48;69.36
71151;BME280;59071;42.138;24.768;2022-12-07T14:46:38;99560.66;;;11.57;66.33
71151;BME280;59071;42.138;24.768;2022-12-07T14:49:04;99554.06;;;11.59;65.76
71151;BME280;59071;42.138;24.768;2022-12-07T14:51:30;99548.78;;;11.14;66.73
71151;BME280;59071;42.138;24.768;2022-12-07T14:53:55;99551.09;;;10.97;67.67
71151;BME280;59071;42.138;24.768;2022-12-07T14:56:21;99554.38;;;10.92;68.00
71151;BME280;59071;42.138;24.768;2022-12-07T14:58:46;99558.06;;;10.98;68.05
71151;BME280;59071;42.138;24.768;2022-12-07T15:01:13;99551.88;;;11.11;67.38
71151;BME280;59071;42.138;24.768;2022-12-07T15:03:39;99562.38;;;10.99;67.66